sensor_id;sensor_type;location;lat;lon;timestamp;pressure;altitude;pressure_sealevel;temperature;humidity
48614;BME280;34408;51.426;5.444;2024-01-15T00:02:16;100391.28;;;4.85;63.63
48614;BME280;34408;51.426;5.444;2024-01-15T00:04:44;100377.97;;;4.85;63.77
48614;BME280;34408;51.426;5.444;2024-01-15T00:07:12;100385.13;;;4.85;64.10
48614;BME280;34408;51.426;5.444;2024-01-15T00:09:40;100381.66;;;4.84;63.83
48614;BME280;34408;51.426;5.444;2024-01-15T00:12:08;100380.84;;;4.84;64.25
48614;BME280;34408;51.426;5.444;2024-01-15T00:14:35;100378.38;;;4.82;64.26
48614;BME280;34408;51.426;5.444;2024-01-15T00:17:05;100375.50;;;4.84;64.21
48614;BME280;34408;51.426;5.444;2024-01-15T00:19:33;100366.69;;;4.83;64.23
48614;BME280;34408;51.426;5.444;2024-01-15T00:22:00;100356.88;;;4.84;63.88
48614;BME280;34408;51.426;5.444;2024-01-15T00:24:28;100347.03;;;4.84;64.06
48614;BME280;34408;51.426;5.444;2024-01-15T00:26:56;100352.56;;;4.83;64.12
48614;BME280;34408;51.426;5.444;2024-01-15T00:29:24;100351.53;;;4.84;64.04
48614;BME280;34408;51.426;5.444;2024-01-15T00:31:52;100348.88;;;4.84;64.01
48614;BME280;34408;51.426;5.444;2024-01-15T00:34:21;100345.59;;;4.82;63.97
48614;BME280;34408;51.426;5.444;2024-01-15T00:36:49;100341.91;;;4.83;64.44
48614;BME280;34408;51.426;5.444;2024-01-15T00:39:17;100343.94;;;4.81;64.13
48614;BME280;34408;51.426;5.444;2024-01-15T00:41:45;100344.16;;;4.79;64.37
48614;BME280;34408;51.426;5.444;2024-01-15T00:44:12;100338.00;;;4.79;64.09
48614;BME280;34408;51.426;5.444;2024-01-15T00:46:43;100325.50;;;4.79;64.38
48614;BME280;34408;51.426;5.444;2024-01-15T00:49:12;100322.03;;;4.79;64.40
48614;BME280;34408;51.426;5.444;2024-01-15T00:51:42;100328.38;;;4.78;64.30
48614;BME280;34408;51.426;5.444;2024-01-15T00:54:10;100317.72;;;4.78;64.25
48614;BME280;34408;51.426;5.444;2024-01-15T00:56:38;100324.06;;;4.77;64.08
48614;BME280;34408;51.426;5.444;2024-01-15T00:59:06;100312.59;;;4.76;64.02
48614;BME280;34408;51.426;5.444;2024-01-15T01:01:34;100308.91;;;4.77;64.22
48614;BME280;34408;51.426;5.444;2024-01-15T01:04:02;100323.25;;;4.76;64.46
48614;BME280;34408;51.426;5.444;2024-01-15T01:06:30;100317.28;;;4.74;64.08
48614;BME280;34408;51.426;5.444;2024-01-15T01:09:01;100311.34;;;4.72;64.05
48614;BME280;34408;51.426;5.444;2024-01-15T01:11:29;100322.41;;;4.76;64.28
48614;BME280;34408;51.426;5.444;2024-01-15T01:13:57;100306.22;;;4.71;64.59
48614;BME280;34408;51.426;5.444;2024-01-15T01:16:24;100310.31;;;4.73;64.74
48614;BME280;34408;51.426;5.444;2024-01-15T01:18:52;100313.81;;;4.74;64.42
48614;BME280;34408;51.426;5.444;2024-01-15T01:21:20;100311.97;;;4.74;64.65
48614;BME280;34408;51.426;5.444;2024-01-15T01:23:48;100309.31;;;4.74;64.44
48614;BME280;34408;51.426;5.444;2024-01-15T01:26:17;100295.59;;;4.77;64.24
48614;BME280;34408;51.426;5.444;2024-01-15T01:28:45;100305.44;;;4.77;64.56
48614;BME280;34408;51.426;5.444;2024-01-15T01:31:13;100301.13;;;4.76;64.70
48614;BME280;34408;51.426;5.444;2024-01-15T01:33:43;100300.09;;;4.77;64.83
48614;BME280;34408;51.426;5.444;2024-01-15T01:36:11;100303.59;;;4.77;64.84
48614;BME280;34408;51.426;5.444;2024-01-15T01:38:40;100308.91;;;4.77;64.27
48614;BME280;34408;51.426;5.444;2024-01-15T01:41:08;100304.59;;;4.76;64.61
48614;BME280;34408;51.426;5.444;2024-01-15T01:43:37;100313.81;;;4.74;64.55
48614;BME280;34408;51.426;5.444;2024-01-15T01:46:05;100322.00;;;4.72;65.17
48614;BME280;34408;51.426;5.444;2024-01-15T01:48:34;100311.16;;;4.74;65.04
48614;BME280;34408;51.426;5.444;2024-01-15T01:51:04;100297.03;;;4.73;64.96
48614;BME280;34408;51.426;5.444;2024-01-15T01:53:33;100301.53;;;4.73;64.79
48614;BME280;34408;51.426;5.444;2024-01-15T01:56:02;100306.84;;;4.73;64.79
48614;BME280;34408;51.426;5.444;2024-01-15T01:58:32;100306.22;;;4.71;64.66
48614;BME280;34408;51.426;5.444;2024-01-15T02:01:02;100308.69;;;4.72;65.22
48614;BME280;34408;51.426;5.444;2024-01-15T02:03:30;100301.91;;;4.70;64.84
48614;BME280;34408;51.426;5.444;2024-01-15T02:05:59;100311.75;;;4.69;65.01
48614;BME280;34408;51.426;5.444;2024-01-15T02:08:27;100307.25;;;4.70;64.83
48614;BME280;34408;51.426;5.444;2024-01-15T02:10:55;100303.56;;;4.71;64.61
48614;BME280;34408;51.426;5.444;2024-01-15T02:13:23;100300.06;;;4.70;65.05
48614;BME280;34408;51.426;5.444;2024-01-15T02:15:51;100294.31;;;4.67;65.16
48614;BME280;34408;51.426;5.444;2024-01-15T02:18:20;100298.81;;;4.66;65.29
48614;BME280;34408;51.426;5.444;2024-01-15T02:20:48;100297.19;;;4.65;65.01
48614;BME280;34408;51.426;5.444;2024-01-15T02:23:17;100299.84;;;4.65;65.19
48614;BME280;34408;51.426;5.444;2024-01-15T02:25:46;100303.53;;;4.64;65.22
48614;BME280;34408;51.426;5.444;2024-01-15T02:28:15;100306.00;;;4.66;64.80
48614;BME280;34408;51.426;5.444;2024-01-15T02:30:44;100305.16;;;4.65;64.66
48614;BME280;34408;51.426;5.444;2024-01-15T02:33:12;100302.69;;;4.64;65.25
48614;BME280;34408;51.426;5.444;2024-01-15T02:35:41;100292.88;;;4.64;64.96
48614;BME280;34408;51.426;5.444;2024-01-15T02:38:08;100298.19;;;4.64;64.74
48614;BME280;34408;51.426;5.444;2024-01-15T02:40:38;100285.69;;;4.58;64.97
48614;BME280;34408;51.426;5.444;2024-01-15T02:43:06;100302.91;;;4.62;64.81
48614;BME280;34408;51.426;5.444;2024-01-15T02:45:34;100300.25;;;4.62;65.09
48614;BME280;34408;51.426;5.444;2024-01-15T02:48:02;100290.81;;;4.60;65.20
48614;BME280;34408;51.426;5.444;2024-01-15T02:50:30;100279.97;;;4.61;65.03
48614;BME280;34408;51.426;5.444;2024-01-15T02:52:58;100281.81;;;4.61;65.10
48614;BME280;34408;51.426;5.444;2024-01-15T02:55:26;100291.81;;;4.58;65.15
48614;BME280;34408;51.426;5.444;2024-01-15T02:57:57;100294.28;;;4.60;64.59
48614;BME280;34408;51.426;5.444;2024-01-15T03:00:25;100298.78;;;4.60;64.75
48614;BME280;34408;51.426;5.444;2024-01-15T03:02:53;100291.63;;;4.60;64.46
48614;BME280;34408;51.426;5.444;2024-01-15T03:05:20;100294.28;;;4.60;65.01
48614;BME280;34408;51.426;5.444;2024-01-15T03:07:48;100301.44;;;4.60;64.94
48614;BME280;34408;51.426;5.444;2024-01-15T03:10:16;100297.16;;;4.58;64.90
48614;BME280;34408;51.426;5.444;2024-01-15T03:12:44;100297.16;;;4.58;65.05
48614;BME280;34408;51.426;5.444;2024-01-15T03:15:13;100301.66;;;4.58;64.78
48614;BME280;34408;51.426;5.444;2024-01-15T03:17:41;100299.00;;;4.58;65.09
48614;BME280;34408;51.426;5.444;2024-01-15T03:20:11;100299.19;;;4.56;64.57
48614;BME280;34408;51.426;5.444;2024-01-15T03:22:39;100311.28;;;4.59;65.21
48614;BME280;34408;51.426;5.444;2024-01-15T03:25:07;100302.66;;;4.57;65.03
48614;BME280;34408;51.426;5.444;2024-01-15T03:27:35;100312.50;;;4.56;64.80
48614;BME280;34408;51.426;5.444;2024-01-15T03:30:03;100306.34;;;4.56;65.10
48614;BME280;34408;51.426;5.444;2024-01-15T03:32:32;100298.56;;;4.54;65.39
48614;BME280;34408;51.426;5.444;2024-01-15T03:35:01;100300.19;;;4.55;64.77
48614;BME280;34408;51.426;5.444;2024-01-15T04:41:28;100237.31;;;4.48;65.10
48614;BME280;34408;51.426;5.444;2024-01-15T04:43:55;100242.00;;;4.46;65.46
48614;BME280;34408;51.426;5.444;2024-01-15T04:46:23;100247.34;;;4.46;65.29
48614;BME280;34408;51.426;5.444;2024-01-15T04:48:51;100246.13;;;4.48;65.39
48614;BME280;34408;51.426;5.444;2024-01-15T04:51:19;100254.69;;;4.44;65.53
48614;BME280;34408;51.426;5.444;2024-01-15T04:53:47;100244.44;;;4.41;65.56
48614;BME280;34408;51.426;5.444;2024-01-15T04:56:14;100244.25;;;4.42;65.02
48614;BME280;34408;51.426;5.444;2024-01-15T04:58:44;100253.88;;;4.43;65.39
48614;BME280;34408;51.426;5.444;2024-01-15T05:01:13;100247.94;;;4.41;64.96
48614;BME280;34408;51.426;5.444;2024-01-15T05:03:43;100243.00;;;4.38;65.32
48614;BME280;34408;51.426;5.444;2024-01-15T05:06:11;100238.06;;;4.35;65.40
48614;BME280;34408;51.426;5.444;2024-01-15T05:08:39;100241.16;;;4.39;65.48
48614;BME280;34408;51.426;5.444;2024-01-15T05:11:06;100245.66;;;4.38;65.58
48614;BME280;34408;51.426;5.444;2024-01-15T05:13:34;100244.84;;;4.38;65.56
48614;BME280;34408;51.426;5.444;2024-01-15T05:16:04;100233.38;;;4.37;65.40
48614;BME280;34408;51.426;5.444;2024-01-15T05:18:32;100229.06;;;4.36;65.34
48614;BME280;34408;51.426;5.444;2024-01-15T05:21:00;100229.69;;;4.38;65.38
48614;BME280;34408;51.426;5.444;2024-01-15T05:23:30;100227.66;;;4.40;65.45
48614;BME280;34408;51.426;5.444;2024-01-15T05:25:58;100215.97;;;4.35;65.39
48614;BME280;34408;51.426;5.444;2024-01-15T05:28:26;100228.28;;;4.42;65.43
48614;BME280;34408;51.426;5.444;2024-01-15T05:30:53;100221.13;;;4.43;65.23
48614;BME280;34408;51.426;5.444;2024-01-15T05:33:23;100218.47;;;4.43;65.63
48614;BME280;34408;51.426;5.444;2024-01-15T05:35:51;100220.09;;;4.44;65.23
48614;BME280;34408;51.426;5.444;2024-01-15T05:38:20;100219.28;;;4.43;65.20
48614;BME280;34408;51.426;5.444;2024-01-15T05:40:48;100211.13;;;4.45;65.13
48614;BME280;34408;51.426;5.444;2024-01-15T05:43:16;100210.28;;;4.44;65.30
48614;BME280;34408;51.426;5.444;2024-01-15T05:45:43;100193.47;;;4.37;65.46
48614;BME280;34408;51.426;5.444;2024-01-15T05:48:12;100205.78;;;4.45;65.62
48614;BME280;34408;51.426;5.444;2024-01-15T05:50:41;100204.16;;;4.44;65.79
48614;BME280;34408;51.426;5.444;2024-01-15T05:53:09;100204.97;;;4.44;65.46
48614;BME280;34408;51.426;5.444;2024-01-15T05:55:37;100201.28;;;4.45;65.30
48614;BME280;34408;51.426;5.444;2024-01-15T05:58:05;100203.13;;;4.45;65.30
48614;BME280;34408;51.426;5.444;2024-01-15T06:00:33;100203.94;;;4.45;65.17
48614;BME280;34408;51.426;5.444;2024-01-15T06:03:02;100196.97;;;4.44;65.46
48614;BME280;34408;51.426;5.444;2024-01-15T06:05:30;100193.31;;;4.45;65.66
48614;BME280;34408;51.426;5.444;2024-01-15T06:07:59;100190.03;;;4.43;65.94
48614;BME280;34408;51.426;5.444;2024-01-15T06:10:27;100196.97;;;4.44;65.14
48614;BME280;34408;51.426;5.444;2024-01-15T06:12:55;100194.31;;;4.44;65.73
48614;BME280;34408;51.426;5.444;2024-01-15T06:15:22;100194.31;;;4.44;65.73
48614;BME280;34408;51.426;5.444;2024-01-15T06:17:50;100189.19;;;4.43;65.37
48614;BME280;34408;51.426;5.444;2024-01-15T06:20:18;100194.31;;;4.44;65.53
48614;BME280;34408;51.426;5.444;2024-01-15T06:22:46;100189.19;;;4.43;65.61
48614;BME280;34408;51.426;5.444;2024-01-15T06:25:15;100183.72;;;4.51;65.30
48614;BME280;34408;51.426;5.444;2024-01-15T06:27:43;100192.56;;;4.65;64.81
48614;BME280;34408;51.426;5.444;2024-01-15T06:30:12;100190.16;;;4.76;64.98
48614;BME280;34408;51.426;5.444;2024-01-15T06:32:40;100189.78;;;4.93;63.80
48614;BME280;34408;51.426;5.444;2024-01-15T06:35:08;100176.09;;;5.09;63.55
48614;BME280;34408;51.426;5.444;2024-01-15T06:37:37;100177.53;;;5.24;62.81
48614;BME280;34408;51.426;5.444;2024-01-15T06:40:06;100183.28;;;5.41;62.04
48614;BME280;34408;51.426;5.444;2024-01-15T06:42:36;100188.19;;;5.57;62.00
48614;BME280;34408;51.426;5.444;2024-01-15T06:45:05;100184.69;;;5.70;61.46
48614;BME280;34408;51.426;5.444;2024-01-15T06:47:32;100180.59;;;5.81;61.09
48614;BME280;34408;51.426;5.444;2024-01-15T06:50:00;100181.00;;;5.84;61.10
48614;BME280;34408;51.426;5.444;2024-01-15T06:52:28;100176.50;;;5.78;60.94
48614;BME280;34408;51.426;5.444;2024-01-15T06:54:56;100176.31;;;5.67;61.45
48614;BME280;34408;51.426;5.444;2024-01-15T06:57:24;100176.31;;;5.53;61.79
48614;BME280;34408;51.426;5.444;2024-01-15T06:59:53;100182.03;;;5.37;61.96
48614;BME280;34408;51.426;5.444;2024-01-15T07:02:21;100173.22;;;5.23;62.85
48614;BME280;34408;51.426;5.444;2024-01-15T07:04:49;100173.66;;;5.14;62.67
48614;BME280;34408;51.426;5.444;2024-01-15T07:07:17;100174.47;;;5.08;63.17
48614;BME280;34408;51.426;5.444;2024-01-15T07:09:45;100177.94;;;5.02;63.20
48614;BME280;34408;51.426;5.444;2024-01-15T07:12:13;100176.06;;;4.96;63.36
48614;BME280;34408;51.426;5.444;2024-01-15T07:14:43;100174.63;;;4.93;63.57
48614;BME280;34408;51.426;5.444;2024-01-15T07:17:12;100178.91;;;4.87;63.75
48614;BME280;34408;51.426;5.444;2024-01-15T07:19:40;100182.59;;;4.80;64.06
48614;BME280;34408;51.426;5.444;2024-01-15T07:22:08;100179.50;;;4.76;64.17
48614;BME280;34408;51.426;5.444;2024-01-15T07:24:36;100181.94;;;4.71;64.61
48614;BME280;34408;51.426;5.444;2024-01-15T07:27:04;100187.66;;;4.68;64.63
48614;BME280;34408;51.426;5.444;2024-01-15T07:29:32;100187.25;;;4.65;64.99
48614;BME280;34408;51.426;5.444;2024-01-15T07:32:03;100189.28;;;4.63;64.60
48614;BME280;34408;51.426;5.444;2024-01-15T07:34:32;100189.47;;;4.54;64.45
48614;BME280;34408;51.426;5.444;2024-01-15T07:37:00;100185.34;;;4.52;65.05
48614;BME280;34408;51.426;5.444;2024-01-15T07:39:28;100178.81;;;4.54;64.82
48614;BME280;34408;51.426;5.444;2024-01-15T07:41:57;100182.53;;;4.67;64.82
48614;BME280;34408;51.426;5.444;2024-01-15T07:44:25;100176.63;;;4.78;64.22
48614;BME280;34408;51.426;5.444;2024-01-15T07:46:53;100184.69;;;4.98;63.71
48614;BME280;34408;51.426;5.444;2024-01-15T07:49:20;100183.88;;;5.04;63.25
48614;BME280;34408;51.426;5.444;2024-01-15T07:51:51;100192.47;;;5.06;63.18
48614;BME280;34408;51.426;5.444;2024-01-15T07:54:19;100195.94;;;5.00;63.09
48614;BME280;34408;51.426;5.444;2024-01-15T07:56:54;100203.91;;;4.93;63.68
48614;BME280;34408;51.426;5.444;2024-01-15T07:59:22;100207.78;;;4.84;63.46
48614;BME280;34408;51.426;5.444;2024-01-15T08:01:51;100206.75;;;4.78;63.94
48614;BME280;34408;51.426;5.444;2024-01-15T08:04:19;100207.13;;;4.69;64.08
48614;BME280;34408;51.426;5.444;2024-01-15T08:06:48;100215.50;;;4.66;64.63
48614;BME280;34408;51.426;5.444;2024-01-15T08:09:18;100213.63;;;4.60;63.95
48614;BME280;34408;51.426;5.444;2024-01-15T08:11:46;100222.25;;;4.62;64.44
48614;BME280;34408;51.426;5.444;2024-01-15T08:14:14;100226.50;;;4.56;64.44
48614;BME280;34408;51.426;5.444;2024-01-15T08:16:41;100224.00;;;4.48;64.69
48614;BME280;34408;51.426;5.444;2024-01-15T08:19:10;100219.50;;;4.48;64.90
48614;BME280;34408;51.426;5.444;2024-01-15T08:21:39;100219.09;;;4.45;65.15
48614;BME280;34408;51.426;5.444;2024-01-15T08:24:07;100215.81;;;4.43;65.21
48614;BME280;34408;51.426;5.444;2024-01-15T08:26:36;100213.97;;;4.43;65.09
48614;BME280;34408;51.426;5.444;2024-01-15T08:29:04;100220.72;;;4.46;65.09
48614;BME280;34408;51.426;5.444;2024-01-15T08:31:32;100223.16;;;4.41;64.90
48614;BME280;34408;51.426;5.444;2024-01-15T08:34:00;100218.63;;;4.35;65.54
48614;BME280;34408;51.426;5.444;2024-01-15T08:36:28;100223.72;;;4.30;65.40
48614;BME280;34408;51.426;5.444;2024-01-15T08:38:57;100232.56;;;4.37;65.46
48614;BME280;34408;51.426;5.444;2024-01-15T08:41:25;100231.94;;;4.35;65.34
48614;BME280;34408;51.426;5.444;2024-01-15T08:43:54;100231.50;;;4.31;65.44
48614;BME280;34408;51.426;5.444;2024-01-15T08:46:22;100232.13;;;4.33;65.07
48614;BME280;34408;51.426;5.444;2024-01-15T08:48:50;100235.03;;;4.38;65.19
48614;BME280;34408;51.426;5.444;2024-01-15T08:51:18;100241.63;;;4.49;64.96
48614;BME280;34408;51.426;5.444;2024-01-15T08:53:46;100236.47;;;4.41;64.53
48614;BME280;34408;51.426;5.444;2024-01-15T08:56:14;100230.16;;;4.48;65.14
48614;BME280;34408;51.426;5.444;2024-01-15T08:58:42;100227.78;;;4.67;64.59
48614;BME280;34408;51.426;5.444;2024-01-15T09:01:11;100230.91;;;4.83;63.59
48614;BME280;34408;51.426;5.444;2024-01-15T09:03:40;100228.09;;;4.92;63.39
48614;BME280;34408;51.426;5.444;2024-01-15T09:06:08;100235.50;;;5.09;62.98
48614;BME280;34408;51.426;5.444;2024-01-15T09:08:37;100233.03;;;5.21;62.85
48614;BME280;34408;51.426;5.444;2024-01-15T09:11:05;100237.16;;;5.23;62.34
48614;BME280;34408;51.426;5.444;2024-01-15T09:13:33;100246.78;;;5.24;62.45
48614;BME280;34408;51.426;5.444;2024-01-15T09:16:01;100245.97;;;5.31;62.40
48614;BME280;34408;51.426;5.444;2024-01-15T09:18:30;100238.81;;;5.38;61.97
48614;BME280;34408;51.426;5.444;2024-01-15T09:20:59;100242.50;;;5.37;62.09
48614;BME280;34408;51.426;5.444;2024-01-15T09:23:26;100246.41;;;5.54;61.23
48614;BME280;34408;51.426;5.444;2024-01-15T09:25:55;100262.41;;;5.61;61.07
48614;BME280;34408;51.426;5.444;2024-01-15T09:28:23;100250.94;;;5.67;60.97
48614;BME280;34408;51.426;5.444;2024-01-15T09:30:51;100256.28;;;5.73;60.80
48614;BME280;34408;51.426;5.444;2024-01-15T09:33:18;100254.44;;;5.80;60.72
48614;BME280;34408;51.426;5.444;2024-01-15T09:35:47;100252.78;;;5.86;60.53
48614;BME280;34408;51.426;5.444;2024-01-15T09:38:15;100250.56;;;5.90;60.16
48614;BME280;34408;51.426;5.444;2024-01-15T09:40:45;100250.53;;;5.76;60.58
48614;BME280;34408;51.426;5.444;2024-01-15T09:43:14;100244.59;;;5.61;60.97
48614;BME280;34408;51.426;5.444;2024-01-15T09:45:43;100239.66;;;5.45;61.72
48614;BME280;34408;51.426;5.444;2024-01-15T09:48:11;100230.19;;;5.36;61.94
48614;BME280;34408;51.426;5.444;2024-01-15T09:50:40;100233.91;;;5.48;61.74
48614;BME280;34408;51.426;5.444;2024-01-15T09:53:09;100237.81;;;5.65;61.67
48614;BME280;34408;51.426;5.444;2024-01-15T09:55:37;100241.09;;;5.80;60.64
48614;BME280;34408;51.426;5.444;2024-01-15T09:58:05;100247.50;;;5.93;60.55
48614;BME280;34408;51.426;5.444;2024-01-15T10:00:33;100251.16;;;6.05;59.80
48614;BME280;34408;51.426;5.444;2024-01-15T10:03:04;100247.88;;;6.16;60.10
48614;BME280;34408;51.426;5.444;2024-01-15T10:05:33;100262.66;;;6.18;59.46
48614;BME280;34408;51.426;5.444;2024-01-15T10:08:02;100250.13;;;6.26;59.65
48614;BME280;34408;51.426;5.444;2024-01-15T10:10:31;100250.72;;;6.28;59.58
48614;BME280;34408;51.426;5.444;2024-01-15T10:12:59;100246.00;;;6.30;59.07
48614;BME280;34408;51.426;5.444;2024-01-15T10:15:27;100254.00;;;6.36;58.75
48614;BME280;34408;51.426;5.444;2024-01-15T10:17:55;100248.03;;;6.34;59.18
48614;BME280;34408;51.426;5.444;2024-01-15T10:20:23;100249.91;;;6.34;58.97
48614;BME280;34408;51.426;5.444;2024-01-15T10:22:51;100235.31;;;6.30;59.13
48614;BME280;34408;51.426;5.444;2024-01-15T10:25:19;100238.63;;;6.18;59.72
48614;BME280;34408;51.426;5.444;2024-01-15T10:28:01;100237.63;;;6.00;60.25
48614;BME280;34408;51.426;5.444;2024-01-15T10:30:30;100242.13;;;5.86;60.71
48614;BME280;34408;51.426;5.444;2024-01-15T10:32:59;100238.22;;;5.69;61.29
48614;BME280;34408;51.426;5.444;2024-01-15T10:35:29;100236.56;;;5.54;61.70
48614;BME280;34408;51.426;5.444;2024-01-15T10:37:58;100242.09;;;5.46;61.96
48614;BME280;34408;51.426;5.444;2024-01-15T10:40:26;100238.00;;;5.37;62.22
48614;BME280;34408;51.426;5.444;2024-01-15T10:42:54;100232.03;;;5.35;62.36
48614;BME280;34408;51.426;5.444;2024-01-15T10:45:24;100243.09;;;5.26;62.99
48614;BME280;34408;51.426;5.444;2024-01-15T10:47:53;100252.13;;;5.18;62.84
48614;BME280;34408;51.426;5.444;2024-01-15T10:50:25;100244.75;;;5.13;63.36
48614;BME280;34408;51.426;5.444;2024-01-15T10:52:54;100246.59;;;5.13;63.53
48614;BME280;34408;51.426;5.444;2024-01-15T10:55:23;100251.06;;;5.06;63.85
48614;BME280;34408;51.426;5.444;2024-01-15T10:57:52;100252.28;;;5.03;63.93
48614;BME280;34408;51.426;5.444;2024-01-15T11:00:24;100252.28;;;4.97;64.06
48614;BME280;34408;51.426;5.444;2024-01-15T11:02:53;100243.66;;;4.95;64.09
48614;BME280;34408;51.426;5.444;2024-01-15T11:05:22;100246.34;;;5.01;63.93
48614;BME280;34408;51.426;5.444;2024-01-15T11:07:55;100246.78;;;5.11;63.60
48614;BME280;34408;51.426;5.444;2024-01-15T11:10:38;100247.00;;;5.30;63.07
48614;BME280;34408;51.426;5.444;2024-01-15T11:13:09;100239.25;;;5.48;62.49
48614;BME280;34408;51.426;5.444;2024-01-15T11:15:58;100238.44;;;5.67;61.64
48614;BME280;34408;51.426;5.444;2024-01-15T11:18:27;100250.75;;;5.88;61.05
48614;BME280;34408;51.426;5.444;2024-01-15T11:21:21;100247.47;;;5.99;60.80
48614;BME280;34408;51.426;5.444;2024-01-15T11:23:51;100253.63;;;6.13;60.48
48614;BME280;34408;51.426;5.444;2024-01-15T11:26:30;100253.00;;;6.11;60.44
48614;BME280;34408;51.426;5.444;2024-01-15T11:28:59;100251.59;;;6.02;60.42
48614;BME280;34408;51.426;5.444;2024-01-15T11:31:29;100259.38;;;5.90;61.49
48614;BME280;34408;51.426;5.444;2024-01-15T11:33:58;100264.47;;;5.78;61.49
48614;BME280;34408;51.426;5.444;2024-01-15T11:37:01;100272.06;;;5.62;62.34
48614;BME280;34408;51.426;5.444;2024-01-15T11:39:41;100284.13;;;5.44;62.70
48614;BME280;34408;51.426;5.444;2024-01-15T11:42:14;100287.78;;;5.30;63.00
48614;BME280;34408;51.426;5.444;2024-01-15T11:44:42;100278.94;;;5.10;63.71
48614;BME280;34408;51.426;5.444;2024-01-15T11:47:12;100286.34;;;5.14;63.35
48614;BME280;34408;51.426;5.444;2024-01-15T11:50:03;100267.88;;;5.06;64.08
48614;BME280;34408;51.426;5.444;2024-01-15T11:52:35;100276.28;;;5.10;63.62
48614;BME280;34408;51.426;5.444;2024-01-15T11:55:16;100277.72;;;5.12;63.59
48614;BME280;34408;51.426;5.444;2024-01-15T11:57:49;100275.47;;;5.09;63.34
48614;BME280;34408;51.426;5.444;2024-01-15T12:00:18;100283.06;;;5.19;63.63
48614;BME280;34408;51.426;5.444;2024-01-15T12:02:48;100280.81;;;5.29;63.07
48614;BME280;34408;51.426;5.444;2024-01-15T12:05:18;100284.72;;;5.40;62.69
48614;BME280;34408;51.426;5.444;2024-01-15T12:07:48;100274.72;;;5.55;62.42
48614;BME280;34408;51.426;5.444;2024-01-15T12:10:17;100279.25;;;5.68;61.87
48614;BME280;34408;51.426;5.444;2024-01-15T12:12:57;100277.41;;;5.81;61.45
48614;BME280;34408;51.426;5.444;2024-01-15T12:15:27;100276.41;;;5.96;60.92
48614;BME280;34408;51.426;5.444;2024-01-15T12:17:59;100281.53;;;6.10;60.77
48614;BME280;34408;51.426;5.444;2024-01-15T12:20:28;100273.31;;;6.18;60.25
48614;BME280;34408;51.426;5.444;2024-01-15T12:22:56;100269.19;;;6.29;60.30
48614;BME280;34408;51.426;5.444;2024-01-15T12:25:30;100264.69;;;6.30;59.86
48614;BME280;34408;51.426;5.444;2024-01-15T12:27:59;100260.19;;;6.24;59.94
48614;BME280;34408;51.426;5.444;2024-01-15T12:30:28;100271.47;;;6.12;60.07
48614;BME280;34408;51.426;5.444;2024-01-15T12:33:01;100270.25;;;5.95;61.09
48614;BME280;34408;51.426;5.444;2024-01-15T12:35:30;100281.09;;;5.80;61.40
48614;BME280;34408;51.426;5.444;2024-01-15T12:37:59;100277.59;;;5.67;61.99
48614;BME280;34408;51.426;5.444;2024-01-15T12:40:29;100282.09;;;5.60;62.10
48614;BME280;34408;51.426;5.444;2024-01-15T12:42:58;100286.78;;;5.44;62.64
48614;BME280;34408;51.426;5.444;2024-01-15T12:45:26;100290.25;;;5.38;62.79
48614;BME280;34408;51.426;5.444;2024-01-15T12:47:54;100290.44;;;5.30;63.00
48614;BME280;34408;51.426;5.444;2024-01-15T12:50:25;100281.00;;;5.21;63.60
48614;BME280;34408;51.426;5.444;2024-01-15T12:52:53;100287.97;;;5.22;63.29
48614;BME280;34408;51.426;5.444;2024-01-15T12:55:21;100289.81;;;5.21;63.78
48614;BME280;34408;51.426;5.444;2024-01-15T12:57:49;100291.44;;;5.22;63.38
48614;BME280;34408;51.426;5.444;2024-01-15T13:00:19;100293.50;;;5.14;63.65
48614;BME280;34408;51.426;5.444;2024-01-15T13:02:47;100295.53;;;5.12;63.54
48614;BME280;34408;51.426;5.444;2024-01-15T13:05:16;100303.69;;;4.97;64.08
48614;BME280;34408;51.426;5.444;2024-01-15T13:07:46;100320.91;;;5.01;64.21
48614;BME280;34408;51.426;5.444;2024-01-15T13:10:14;100315.22;;;5.11;63.86
48614;BME280;34408;51.426;5.444;2024-01-15T13:12:42;100327.31;;;5.27;63.08
48614;BME280;34408;51.426;5.444;2024-01-15T13:15:10;100329.22;;;5.39;62.56
48614;BME280;34408;51.426;5.444;2024-01-15T13:17:40;100327.16;;;5.35;62.81
48614;BME280;34408;51.426;5.444;2024-01-15T13:20:10;100335.59;;;5.51;62.03
48614;BME280;34408;51.426;5.444;2024-01-15T13:22:39;100337.25;;;5.52;62.23
48614;BME280;34408;51.426;5.444;2024-01-15T13:25:12;100334.59;;;5.59;62.18
48614;BME280;34408;51.426;5.444;2024-01-15T13:27:40;100332.56;;;5.74;61.45
48614;BME280;34408;51.426;5.444;2024-01-15T13:30:09;100334.88;;;5.91;61.26
48614;BME280;34408;51.426;5.444;2024-01-15T13:32:39;100327.91;;;6.09;60.23
48614;BME280;34408;51.426;5.444;2024-01-15T13:35:08;100318.25;;;6.08;60.55
48614;BME280;34408;51.426;5.444;2024-01-15T13:37:40;100328.94;;;6.15;60.30
48614;BME280;34408;51.426;5.444;2024-01-15T13:40:09;100339.81;;;6.13;60.13
48614;BME280;34408;51.426;5.444;2024-01-15T13:42:45;100350.28;;;6.08;59.97
48614;BME280;34408;51.426;5.444;2024-01-15T13:45:14;100351.47;;;5.86;60.82
48614;BME280;34408;51.426;5.444;2024-01-15T13:47:42;100340.75;;;5.66;61.35
48614;BME280;34408;51.426;5.444;2024-01-15T13:50:11;100348.53;;;5.54;61.86
48614;BME280;34408;51.426;5.444;2024-01-15T13:52:39;100353.22;;;5.52;62.15
48614;BME280;34408;51.426;5.444;2024-01-15T13:55:07;100350.53;;;5.46;62.18
48614;BME280;34408;51.426;5.444;2024-01-15T13:57:36;100338.63;;;5.35;62.75
48614;BME280;34408;51.426;5.444;2024-01-15T14:00:06;100343.72;;;5.30;62.98
48614;BME280;34408;51.426;5.444;2024-01-15T14:02:38;100352.31;;;5.26;62.85
48614;BME280;34408;51.426;5.444;2024-01-15T14:05:06;100351.50;;;5.18;63.27
48614;BME280;34408;51.426;5.444;2024-01-15T14:07:35;100343.50;;;5.12;63.32
48614;BME280;34408;51.426;5.444;2024-01-15T14:10:03;100343.69;;;5.10;63.78
48614;BME280;34408;51.426;5.444;2024-01-15T14:12:33;100347.38;;;5.09;63.58
48614;BME280;34408;51.426;5.444;2024-01-15T14:15:01;100347.38;;;5.09;63.64